sensor_id;sensor_type;location;lat;lon;timestamp;temperature;humidity
6930;DHT22;3504;52.616;13.238;2023-07-13T00:01:49;18.27;67.36
6930;DHT22;3504;52.616;13.238;2023-07-13T00:06:50;18.23;67.87
6930;DHT22;3504;52.616;13.238;2023-07-13T00:11:54;18.14;68.64
6930;DHT22;3504;52.616;13.238;2023-07-13T00:16:55;18.13;67.86
6930;DHT22;3504;52.616;13.238;2023-07-13T00:21:55;18.10;68.36
6930;DHT22;3504;52.616;13.238;2023-07-13T00:26:56;18.07;68.67
6930;DHT22;3504;52.616;13.238;2023-07-13T00:31:57;17.95;68.75
6930;DHT22;3504;52.616;13.238;2023-07-13T00:36:58;17.86;69.75
6930;DHT22;3504;52.616;13.238;2023-07-13T00:41:59;17.83;69.64
6930;DHT22;3504;52.616;13.238;2023-07-13T00:47:00;17.76;69.21
6930;DHT22;3504;52.616;13.238;2023-07-13T00:52:07;17.65;69.85
6930;DHT22;3504;52.616;13.238;2023-07-13T00:57:14;17.54;70.02
6930;DHT22;3504;52.616;13.238;2023-07-13T01:02:15;17.46;70.00
6930;DHT22;3504;52.616;13.238;2023-07-13T01:07:18;17.25;72.09
6930;DHT22;3504;52.616;13.238;2023-07-13T01:12:19;17.15;71.27
6930;DHT22;3504;52.616;13.238;2023-07-13T01:17:19;17.08;72.87
6930;DHT22;3504;52.616;13.238;2023-07-13T01:22:20;17.04;72.76
6930;DHT22;3504;52.616;13.238;2023-07-13T01:27:26;17.01;71.86
6930;DHT22;3504;52.616;13.238;2023-07-13T01:32:26;17.10;71.82
6930;DHT22;3504;52.616;13.238;2023-07-13T01:37:29;17.01;71.73
6930;DHT22;3504;52.616;13.238;2023-07-13T01:42:33;16.99;71.51
6930;DHT22;3504;52.616;13.238;2023-07-13T01:47:34;16.97;71.94
6930;DHT22;3504;52.616;13.238;2023-07-13T01:52:34;16.87;72.15
6930;DHT22;3504;52.616;13.238;2023-07-13T01:57:35;16.83;72.67
6930;DHT22;3504;52.616;13.238;2023-07-13T02:02:36;16.77;73.13
6930;DHT22;3504;52.616;13.238;2023-07-13T02:07:37;16.72;72.48
6930;DHT22;3504;52.616;13.238;2023-07-13T02:12:39;16.66;72.20
6930;DHT22;3504;52.616;13.238;2023-07-13T02:17:39;16.60;72.61
6930;DHT22;3504;52.616;13.238;2023-07-13T02:22:40;16.55;72.68
6930;DHT22;3504;52.616;13.238;2023-07-13T02:27:40;16.49;72.58
6930;DHT22;3504;52.616;13.238;2023-07-13T02:32:41;16.41;73.02
6930;DHT22;3504;52.616;13.238;2023-07-13T02:37:42;16.43;73.05
6930;DHT22;3504;52.616;13.238;2023-07-13T02:42:42;16.43;73.05
6930;DHT22;3504;52.616;13.238;2023-07-13T02:47:43;16.39;73.53
6930;DHT22;3504;52.616;13.238;2023-07-13T02:52:45;16.35;74.57
6930;DHT22;3504;52.616;13.238;2023-07-13T02:57:46;16.31;73.65
6930;DHT22;3504;52.616;13.238;2023-07-13T03:02:46;16.25;74.05
6930;DHT22;3504;52.616;13.238;2023-07-13T03:07:47;16.18;74.19
6930;DHT22;3504;52.616;13.238;2023-07-13T03:12:49;16.12;74.75
6930;DHT22;3504;52.616;13.238;2023-07-13T03:17:56;16.08;74.21
6930;DHT22;3504;52.616;13.238;2023-07-13T03:22:57;16.07;74.09
6930;DHT22;3504;52.616;13.238;2023-07-13T03:27:58;16.07;74.84
6930;DHT22;3504;52.616;13.238;2023-07-13T03:32:59;16.02;74.90
6930;DHT22;3504;52.616;13.238;2023-07-13T03:38:01;16.04;75.28
6930;DHT22;3504;52.616;13.238;2023-07-13T03:43:03;16.04;74.90
6930;DHT22;3504;52.616;13.238;2023-07-13T03:48:05;16.04;75.16
6930;DHT22;3504;52.616;13.238;2023-07-13T03:53:07;16.04;75.20
6930;DHT22;3504;52.616;13.238;2023-07-13T04:03:33;16.10;75.19
6930;DHT22;3504;52.616;13.238;2023-07-13T04:08:36;16.12;75.42
6930;DHT22;3504;52.616;13.238;2023-07-13T04:13:36;16.15;75.09
6930;DHT22;3504;52.616;13.238;2023-07-13T04:18:37;16.24;75.58
6930;DHT22;3504;52.616;13.238;2023-07-13T04:23:38;16.24;76.22
6930;DHT22;3504;52.616;13.238;2023-07-13T04:28:38;16.25;76.90
6930;DHT22;3504;52.616;13.238;2023-07-13T04:33:39;16.31;75.74
6930;DHT22;3504;52.616;13.238;2023-07-13T04:38:39;16.38;75.98
6930;DHT22;3504;52.616;13.238;2023-07-13T04:43:40;16.48;76.10
6930;DHT22;3504;52.616;13.238;2023-07-13T04:48:40;16.52;75.81
6930;DHT22;3504;52.616;13.238;2023-07-13T04:53:41;16.63;75.86
6930;DHT22;3504;52.616;13.238;2023-07-13T04:58:42;16.72;75.75
6930;DHT22;3504;52.616;13.238;2023-07-13T05:03:42;16.82;75.24
6930;DHT22;3504;52.616;13.238;2023-07-13T05:08:43;16.96;75.48
6930;DHT22;3504;52.616;13.238;2023-07-13T05:13:43;17.10;75.20
6930;DHT22;3504;52.616;13.238;2023-07-13T05:18:44;17.15;74.98
6930;DHT22;3504;52.616;13.238;2023-07-13T05:23:44;17.32;75.21
6930;DHT22;3504;52.616;13.238;2023-07-13T05:28:45;17.46;74.59
6930;DHT22;3504;52.616;13.238;2023-07-13T05:33:45;17.61;74.83
6930;DHT22;3504;52.616;13.238;2023-07-13T05:38:46;17.78;73.79
6930;DHT22;3504;52.616;13.238;2023-07-13T05:43:47;18.00;73.34
6930;DHT22;3504;52.616;13.238;2023-07-13T05:48:47;18.27;72.74
6930;DHT22;3504;52.616;13.238;2023-07-13T05:53:48;18.67;72.48
6930;DHT22;3504;52.616;13.238;2023-07-13T05:58:49;19.30;71.53
6930;DHT22;3504;52.616;13.238;2023-07-13T06:03:50;19.84;68.69
6930;DHT22;3504;52.616;13.238;2023-07-13T06:08:50;20.07;67.39
6930;DHT22;3504;52.616;13.238;2023-07-13T06:13:51;20.72;66.20
6930;DHT22;3504;52.616;13.238;2023-07-13T06:18:51;21.43;64.36
6930;DHT22;3504;52.616;13.238;2023-07-13T06:23:52;21.92;61.94
6930;DHT22;3504;52.616;13.238;2023-07-13T06:28:53;22.29;59.37
6930;DHT22;3504;52.616;13.238;2023-07-13T06:33:54;22.57;58.52
6930;DHT22;3504;52.616;13.238;2023-07-13T06:38:54;22.83;58.22
6930;DHT22;3504;52.616;13.238;2023-07-13T06:43:55;23.24;57.12
6930;DHT22;3504;52.616;13.238;2023-07-13T06:48:56;23.78;56.53
6930;DHT22;3504;52.616;13.238;2023-07-13T06:53:56;24.13;56.36
6930;DHT22;3504;52.616;13.238;2023-07-13T06:58:57;23.90;56.48
6930;DHT22;3504;52.616;13.238;2023-07-13T07:03:57;23.65;56.03
6930;DHT22;3504;52.616;13.238;2023-07-13T07:08:58;23.34;56.87
6930;DHT22;3504;52.616;13.238;2023-07-13T07:13:58;23.50;56.83
6930;DHT22;3504;52.616;13.238;2023-07-13T07:19:02;23.88;55.30
6930;DHT22;3504;52.616;13.238;2023-07-13T07:24:03;23.88;54.98
6930;DHT22;3504;52.616;13.238;2023-07-13T07:29:04;24.17;55.07
6930;DHT22;3504;52.616;13.238;2023-07-13T07:34:05;24.30;53.31
6930;DHT22;3504;52.616;13.238;2023-07-13T07:39:05;24.07;53.57
6930;DHT22;3504;52.616;13.238;2023-07-13T07:44:06;23.99;54.58
6930;DHT22;3504;52.616;13.238;2023-07-13T07:49:07;24.00;53.97
6930;DHT22;3504;52.616;13.238;2023-07-13T07:54:11;24.04;53.93
6930;DHT22;3504;52.616;13.238;2023-07-13T07:59:11;24.28;53.49
6930;DHT22;3504;52.616;13.238;2023-07-13T08:04:12;24.37;51.95
6930;DHT22;3504;52.616;13.238;2023-07-13T08:09:13;24.43;50.95
6930;DHT22;3504;52.616;13.238;2023-07-13T08:14:13;24.50;51.10
6930;DHT22;3504;52.616;13.238;2023-07-13T08:19:14;24.50;46.39
6930;DHT22;3504;52.616;13.238;2023-07-13T08:24:15;24.64;47.40
6930;DHT22;3504;52.616;13.238;2023-07-13T08:29:15;24.89;44.37
6930;DHT22;3504;52.616;13.238;2023-07-13T08:34:16;24.94;44.64
6930;DHT22;3504;52.616;13.238;2023-07-13T08:39:17;24.86;45.97
6930;DHT22;3504;52.616;13.238;2023-07-13T08:45:18;24.81;46.01
6930;DHT22;3504;52.616;13.238;2023-07-13T08:49:50;25.44;46.26
6930;DHT22;3504;52.616;13.238;2023-07-13T08:54:53;25.77;45.05
6930;DHT22;3504;52.616;13.238;2023-07-13T08:59:55;25.85;43.83
6930;DHT22;3504;52.616;13.238;2023-07-13T09:10:33;26.70;42.74
6930;DHT22;3504;52.616;13.238;2023-07-13T09:15:41;26.97;43.29
6930;DHT22;3504;52.616;13.238;2023-07-13T09:20:49;27.17;43.15
6930;DHT22;3504;52.616;13.238;2023-07-13T09:26:02;27.41;42.86
6930;DHT22;3504;52.616;13.238;2023-07-13T09:36:23;27.54;39.78
6930;DHT22;3504;52.616;13.238;2023-07-13T09:46:51;27.43;41.03
6930;DHT22;3504;52.616;13.238;2023-07-13T09:52:06;27.68;40.85
6930;DHT22;3504;52.616;13.238;2023-07-13T09:57:16;26.67;42.48
6930;DHT22;3504;52.616;13.238;2023-07-13T10:02:30;25.98;43.22
6930;DHT22;3504;52.616;13.238;2023-07-13T10:07:41;25.70;44.39
6930;DHT22;3504;52.616;13.238;2023-07-13T10:12:44;25.36;44.59
6930;DHT22;3504;52.616;13.238;2023-07-13T10:17:45;25.47;43.95
6930;DHT22;3504;52.616;13.238;2023-07-13T10:23:00;25.29;44.41
6930;DHT22;3504;52.616;13.238;2023-07-13T10:28:29;25.15;44.14
6930;DHT22;3504;52.616;13.238;2023-07-13T10:33:30;24.95;45.51
6930;DHT22;3504;52.616;13.238;2023-07-13T10:38:31;26.15;42.71
6930;DHT22;3504;52.616;13.238;2023-07-13T10:43:41;26.83;43.70
6930;DHT22;3504;52.616;13.238;2023-07-13T10:48:46;27.16;39.32
6930;DHT22;3504;52.616;13.238;2023-07-13T10:54:15;27.30;39.57
6930;DHT22;3504;52.616;13.238;2023-07-13T10:59:27;26.75;40.78
6930;DHT22;3504;52.616;13.238;2023-07-13T11:04:40;27.10;40.49
6930;DHT22;3504;52.616;13.238;2023-07-13T11:09:41;27.48;39.40
6930;DHT22;3504;52.616;13.238;2023-07-13T11:25:34;28.06;36.23
6930;DHT22;3504;52.616;13.238;2023-07-13T11:30:42;27.96;35.77
6930;DHT22;3504;52.616;13.238;2023-07-13T11:36:04;27.51;35.88
6930;DHT22;3504;52.616;13.238;2023-07-13T11:41:19;27.07;37.30
6930;DHT22;3504;52.616;13.238;2023-07-13T11:46:24;27.10;38.35
6930;DHT22;3504;52.616;13.238;2023-07-13T11:51:32;27.59;38.27
6930;DHT22;3504;52.616;13.238;2023-07-13T11:56:34;27.90;37.64
6930;DHT22;3504;52.616;13.238;2023-07-13T12:01:36;28.15;38.42
6930;DHT22;3504;52.616;13.238;2023-07-13T12:06:42;28.05;37.90
6930;DHT22;3504;52.616;13.238;2023-07-13T12:11:43;28.06;36.10
6930;DHT22;3504;52.616;13.238;2023-07-13T12:16:47;28.12;36.96
6930;DHT22;3504;52.616;13.238;2023-07-13T12:21:52;28.16;37.14
6930;DHT22;3504;52.616;13.238;2023-07-13T12:27:01;27.79;37.67
6930;DHT22;3504;52.616;13.238;2023-07-13T12:32:02;27.75;36.19
6930;DHT22;3504;52.616;13.238;2023-07-13T12:37:12;27.55;36.58
6930;DHT22;3504;52.616;13.238;2023-07-13T12:42:25;27.69;36.24
6930;DHT22;3504;52.616;13.238;2023-07-13T12:47:28;27.85;37.54
6930;DHT22;3504;52.616;13.238;2023-07-13T12:52:34;27.79;36.39
6930;DHT22;3504;52.616;13.238;2023-07-13T12:57:55;27.77;36.25
6930;DHT22;3504;52.616;13.238;2023-07-13T13:02:57;28.02;35.87
6930;DHT22;3504;52.616;13.238;2023-07-13T13:07:58;28.04;36.34
6930;DHT22;3504;52.616;13.238;2023-07-13T13:12:58;28.04;35.08
6930;DHT22;3504;52.616;13.238;2023-07-13T13:17:59;27.96;35.25
6930;DHT22;3504;52.616;13.238;2023-07-13T13:23:00;27.54;35.87
6930;DHT22;3504;52.616;13.238;2023-07-13T13:28:00;27.62;36.73
6930;DHT22;3504;52.616;13.238;2023-07-13T13:33:01;27.84;37.61
6930;DHT22;3504;52.616;13.238;2023-07-13T13:38:02;27.77;35.98
6930;DHT22;3504;52.616;13.238;2023-07-13T13:43:21;27.59;38.10
6930;DHT22;3504;52.616;13.238;2023-07-13T13:48:34;27.40;36.88
6930;DHT22;3504;52.616;13.238;2023-07-13T13:53:35;27.13;37.08
6930;DHT22;3504;52.616;13.238;2023-07-13T13:58:36;27.28;38.96
6930;DHT22;3504;52.616;13.238;2023-07-13T14:03:36;27.40;37.18
6930;DHT22;3504;52.616;13.238;2023-07-13T14:08:37;27.59;36.54
6930;DHT22;3504;52.616;13.238;2023-07-13T14:13:45;27.65;36.88
6930;DHT22;3504;52.616;13.238;2023-07-13T14:18:48;27.45;36.92
6930;DHT22;3504;52.616;13.238;2023-07-13T14:23:49;27.34;37.77
6930;DHT22;3504;52.616;13.238;2023-07-13T14:28:54;27.34;37.87
6930;DHT22;3504;52.616;13.238;2023-07-13T14:33:55;27.33;35.94
6930;DHT22;3504;52.616;13.238;2023-07-13T14:38:57;27.31;36.54
6930;DHT22;3504;52.616;13.238;2023-07-13T14:43:58;27.37;34.89
6930;DHT22;3504;52.616;13.238;2023-07-13T14:49:21;27.18;36.00
6930;DHT22;3504;52.616;13.238;2023-07-13T14:54:24;27.21;37.42
6930;DHT22;3504;52.616;13.238;2023-07-13T14:59:24;27.16;36.04
6930;DHT22;3504;52.616;13.238;2023-07-13T15:04:25;27.30;35.47
6930;DHT22;3504;52.616;13.238;2023-07-13T15:09:26;27.26;36.71
6930;DHT22;3504;52.616;13.238;2023-07-13T15:14:27;27.31;36.02
6930;DHT22;3504;52.616;13.238;2023-07-13T15:19:28;26.86;36.37
6930;DHT22;3504;52.616;13.238;2023-07-13T15:24:29;26.59;37.14
6930;DHT22;3504;52.616;13.238;2023-07-13T15:29:29;26.49;37.69
6930;DHT22;3504;52.616;13.238;2023-07-13T15:34:33;26.34;38.86
6930;DHT22;3504;52.616;13.238;2023-07-13T15:39:33;26.55;36.91
6930;DHT22;3504;52.616;13.238;2023-07-13T15:44:35;26.35;37.94
6930;DHT22;3504;52.616;13.238;2023-07-13T15:49:36;26.45;38.58
6930;DHT22;3504;52.616;13.238;2023-07-13T15:54:38;26.18;37.95
6930;DHT22;3504;52.616;13.238;2023-07-13T15:59:39;26.09;38.09
6930;DHT22;3504;52.616;13.238;2023-07-13T16:04:41;26.26;38.37
6930;DHT22;3504;52.616;13.238;2023-07-13T16:09:42;26.38;38.61
6930;DHT22;3504;52.616;13.238;2023-07-13T16:14:43;26.31;37.86
6930;DHT22;3504;52.616;13.238;2023-07-13T16:19:44;26.06;38.34
6930;DHT22;3504;52.616;13.238;2023-07-13T16:24:44;26.15;38.67
6930;DHT22;3504;52.616;13.238;2023-07-13T16:29:45;25.73;38.89
6930;DHT22;3504;52.616;13.238;2023-07-13T16:34:45;25.44;39.52
6930;DHT22;3504;52.616;13.238;2023-07-13T16:39:51;25.22;39.73
6930;DHT22;3504;52.616;13.238;2023-07-13T16:44:55;25.08;40.43
6930;DHT22;3504;52.616;13.238;2023-07-13T16:49:56;24.79;40.23
6930;DHT22;3504;52.616;13.238;2023-07-13T16:54:58;23.62;48.36
6930;DHT22;3504;52.616;13.238;2023-07-13T16:59:58;22.60;53.19
6930;DHT22;3504;52.616;13.238;2023-07-13T17:05:02;21.92;56.34
6930;DHT22;3504;52.616;13.238;2023-07-13T17:10:05;21.41;58.82
6930;DHT22;3504;52.616;13.238;2023-07-13T17:15:09;21.18;60.40
6930;DHT22;3504;52.616;13.238;2023-07-13T17:20:18;20.97;61.11
6930;DHT22;3504;52.616;13.238;2023-07-13T17:25:22;20.77;63.42
6930;DHT22;3504;52.616;13.238;2023-07-13T17:30:24;20.36;68.18
6930;DHT22;3504;52.616;13.238;2023-07-13T17:35:28;20.02;68.04
6930;DHT22;3504;52.616;13.238;2023-07-13T17:40:30;19.81;70.23
6930;DHT22;3504;52.616;13.238;2023-07-13T17:45:30;19.67;70.75
6930;DHT22;3504;52.616;13.238;2023-07-13T17:50:34;19.49;71.98
6930;DHT22;3504;52.616;13.238;2023-07-13T17:55:44;19.45;71.38
6930;DHT22;3504;52.616;13.238;2023-07-13T18:00:46;19.54;71.59
6930;DHT22;3504;52.616;13.238;2023-07-13T18:05:49;19.49;72.55
6930;DHT22;3504;52.616;13.238;2023-07-13T18:10:53;19.26;73.84
6930;DHT22;3504;52.616;13.238;2023-07-13T18:15:55;19.20;75.15
6930;DHT22;3504;52.616;13.238;2023-07-13T18:20:58;19.08;75.10
6930;DHT22;3504;52.616;13.238;2023-07-13T18:25:59;19.02;75.05
6930;DHT22;3504;52.616;13.238;2023-07-13T18:30:59;19.02;75.05
6930;DHT22;3504;52.616;13.238;2023-07-13T18:36:03;19.09;74.86
6930;DHT22;3504;52.616;13.238;2023-07-13T18:41:04;19.13;74.30
6930;DHT22;3504;52.616;13.238;2023-07-13T18:46:27;19.23;73.92
6930;DHT22;3504;52.616;13.238;2023-07-13T18:51:31;19.23;74.95
6930;DHT22;3504;52.616;13.238;2023-07-13T18:56:32;19.28;73.98
6930;DHT22;3504;52.616;13.238;2023-07-13T19:01:34;19.25;73.68
6930;DHT22;3504;52.616;13.238;2023-07-13T19:06:35;19.23;73.39
6930;DHT22;3504;52.616;13.238;2023-07-13T19:11:36;19.15;73.11
6930;DHT22;3504;52.616;13.238;2023-07-13T19:16:36;19.10;73.89
6930;DHT22;3504;52.616;13.238;2023-07-13T19:21:38;18.99;73.28
6930;DHT22;3504;52.616;13.238;2023-07-13T19:26:39;18.87;74.44
6930;DHT22;3504;52.616;13.238;2023-07-13T19:31:40;18.81;73.42
6930;DHT22;3504;52.616;13.238;2023-07-13T19:36:40;18.72;74.43
6930;DHT22;3504;52.616;13.238;2023-07-13T19:41:41;18.65;74.88
6930;DHT22;3504;52.616;13.238;2023-07-13T19:46:42;18.51;75.87
6930;DHT22;3504;52.616;13.238;2023-07-13T19:51:43;18.46;75.14
6930;DHT22;3504;52.616;13.238;2023-07-13T19:56:44;18.38;76.27
6930;DHT22;3504;52.616;13.238;2023-07-13T20:01:44;18.31;75.94
6930;DHT22;3504;52.616;13.238;2023-07-13T20:06:46;18.26;76.27
6930;DHT22;3504;52.616;13.238;2023-07-13T20:11:47;18.20;76.56
6930;DHT22;3504;52.616;13.238;2023-07-13T20:16:50;18.09;76.84
6930;DHT22;3504;52.616;13.238;2023-07-13T20:21:52;18.02;77.28
6930;DHT22;3504;52.616;13.238;2023-07-13T20:26:52;17.93;77.09
6930;DHT22;3504;52.616;13.238;2023-07-13T20:31:53;17.89;76.08
6930;DHT22;3504;52.616;13.238;2023-07-13T20:36:54;17.86;75.82
6930;DHT22;3504;52.616;13.238;2023-07-13T20:41:55;17.81;76.52
6930;DHT22;3504;52.616;13.238;2023-07-13T20:46:55;17.68;77.42
6930;DHT22;3504;52.616;13.238;2023-07-13T20:51:56;17.66;76.16
6930;DHT22;3504;52.616;13.238;2023-07-13T20:56:58;17.59;76.64
6930;DHT22;3504;52.616;13.238;2023-07-13T21:01:58;17.52;76.38
6930;DHT22;3504;52.616;13.238;2023-07-13T21:06:59;17.46;76.83
6930;DHT22;3504;52.616;13.238;2023-07-13T21:11:59;17.41;76.53
6930;DHT22;3504;52.616;13.238;2023-07-13T21:17:00;17.35;77.30
6930;DHT22;3504;52.616;13.238;2023-07-13T21:22:01;17.32;77.43
6930;DHT22;3504;52.616;13.238;2023-07-13T21:27:01;17.31;77.83
6930;DHT22;3504;52.616;13.238;2023-07-13T21:32:05;17.31;77.01
6930;DHT22;3504;52.616;13.238;2023-07-13T21:37:17;17.28;78.54
6930;DHT22;3504;52.616;13.238;2023-07-13T21:42:18;17.31;77.76
6930;DHT22;3504;52.616;13.238;2023-07-13T21:47:19;17.32;77.99
6930;DHT22;3504;52.616;13.238;2023-07-13T21:52:20;17.31;78.44
6930;DHT22;3504;52.616;13.238;2023-07-13T21:57:20;17.32;78.78
6930;DHT22;3504;52.616;13.238;2023-07-13T22:02:21;17.31;79.14
6930;DHT22;3504;52.616;13.238;2023-07-13T22:07:21;17.31;79.33
6930;DHT22;3504;52.616;13.238;2023-07-13T22:12:22;17.28;79.19
6930;DHT22;3504;52.616;13.238;2023-07-13T22:17:22;17.31;79.22
6930;DHT22;3504;52.616;13.238;2023-07-13T22:22:23;17.31;79.01
6930;DHT22;3504;52.616;13.238;2023-07-13T22:27:23;17.28;79.51
6930;DHT22;3504;52.616;13.238;2023-07-13T22:32:28;17.21;79.37
6930;DHT22;3504;52.616;13.238;2023-07-13T22:37:29;17.17;79.41
6930;DHT22;3504;52.616;13.238;2023-07-13T22:42:29;17.18;79.36
6930;DHT22;3504;52.616;13.238;2023-07-13T22:47:31;17.18;79.19
6930;DHT22;3504;52.616;13.238;2023-07-13T22:52:31;17.07;79.18
6930;DHT22;3504;52.616;13.238;2023-07-13T22:57:35;16.96;78.79
6930;DHT22;3504;52.616;13.238;2023-07-13T23:02:36;16.92;78.10
6930;DHT22;3504;52.616;13.238;2023-07-13T23:07:36;16.90;78.46
6930;DHT22;3504;52.616;13.238;2023-07-13T23:12:38;16.79;78.15
6930;DHT22;3504;52.616;13.238;2023-07-13T23:17:40;16.67;78.44
6930;DHT22;3504;52.616;13.238;2023-07-13T23:22:40;16.55;78.83
6930;DHT22;3504;52.616;13.238;2023-07-13T23:27:41;16.49;78.42
6930;DHT22;3504;52.616;13.238;2023-07-13T23:33:00;16.43;78.39
6930;DHT22;3504;52.616;13.238;2023-07-13T23:38:01;16.39;78.28
6930;DHT22;3504;52.616;13.238;2023-07-13T23:43:01;16.31;77.91
6930;DHT22;3504;52.616;13.238;2023-07-13T23:48:04;16.22;78.02
6930;DHT22;3504;52.616;13.238;2023-07-13T23:53:15;16.17;78.15
6930;DHT22;3504;52.616;13.238;2023-07-13T23:58:16;16.07;78.51
